Pleasant Plains, Illinois
Current Conditions -  °F | °C
As of 11:52 PM on Wednesday 22 Oct 2014 (Local Time) from KSPI Reporting Station
Clear Clear  
Wind Chill:   Ceiling: Unl
Heat Index:   Visibility: 10mi
Dew Point:   Wind: 3mph
Humidity: 86%   Direction: 100°E
Pressure: 30.24"   Gusts: NA
Location:  39.87°N, 89.92°W
Report Text: KSPI 230452Z AUTO 10003KT 10SM CLR 04/02 A3024 RMK AO2 SLP244 T00390017
Loading
Personal Weather Stations






























Interactive Weather Map
Tropical Storm Tracking
New forecast layout! Learn more

10-Day Weather Forecast

Advertisements
Track Severe Weather on mobile